sensor_id;sensor_type;location;lat;lon;timestamp;temperature;humidity
21834;DHT22;11079;51.092;3.458;2022-08-24T00:01:56;21.00;99.90
21834;DHT22;11079;51.092;3.458;2022-08-24T00:04:23;21.00;99.90
21834;DHT22;11079;51.092;3.458;2022-08-24T00:06:48;21.00;99.90
21834;DHT22;11079;51.092;3.458;2022-08-24T00:09:15;21.00;99.90
21834;DHT22;11079;51.092;3.458;2022-08-24T00:11:41;21.00;99.90
21834;DHT22;11079;51.092;3.458;2022-08-24T00:14:07;21.10;99.90
21834;DHT22;11079;51.092;3.458;2022-08-24T00:16:33;21.10;99.90
21834;DHT22;11079;51.092;3.458;2022-08-24T00:19:00;21.10;99.90
21834;DHT22;11079;51.092;3.458;2022-08-24T00:21:25;21.10;99.90
21834;DHT22;11079;51.092;3.458;2022-08-24T00:23:52;21.10;99.90
21834;DHT22;11079;51.092;3.458;2022-08-24T00:26:17;21.00;99.90
21834;DHT22;11079;51.092;3.458;2022-08-24T00:28:43;21.00;99.90
21834;DHT22;11079;51.092;3.458;2022-08-24T00:31:09;20.90;99.90
21834;DHT22;11079;51.092;3.458;2022-08-24T00:33:35;20.80;99.90
21834;DHT22;11079;51.092;3.458;2022-08-24T00:36:01;20.80;99.90
21834;DHT22;11079;51.092;3.458;2022-08-24T00:38:28;20.90;99.90
21834;DHT22;11079;51.092;3.458;2022-08-24T00:40:53;20.80;99.90
21834;DHT22;11079;51.092;3.458;2022-08-24T00:43:24;20.80;99.90
21834;DHT22;11079;51.092;3.458;2022-08-24T00:48:43;20.90;99.90
21834;DHT22;11079;51.092;3.458;2022-08-24T00:51:18;20.90;99.90
21834;DHT22;11079;51.092;3.458;2022-08-24T00:54:01;20.80;99.90
21834;DHT22;11079;51.092;3.458;2022-08-24T00:56:31;20.80;99.90
21834;DHT22;11079;51.092;3.458;2022-08-24T00:59:07;20.70;99.90
21834;DHT22;11079;51.092;3.458;2022-08-24T01:01:36;20.70;99.90
21834;DHT22;11079;51.092;3.458;2022-08-24T01:04:03;20.70;99.90
21834;DHT22;11079;51.092;3.458;2022-08-24T01:06:30;20.70;99.90
21834;DHT22;11079;51.092;3.458;2022-08-24T01:08:58;20.70;99.90
21834;DHT22;11079;51.092;3.458;2022-08-24T01:11:26;20.60;99.90
21834;DHT22;11079;51.092;3.458;2022-08-24T01:13:53;20.60;99.90
21834;DHT22;11079;51.092;3.458;2022-08-24T01:16:20;20.60;99.90
21834;DHT22;11079;51.092;3.458;2022-08-24T01:19:41;20.50;99.90
21834;DHT22;11079;51.092;3.458;2022-08-24T01:22:33;20.60;99.90
21834;DHT22;11079;51.092;3.458;2022-08-24T01:25:02;20.60;99.90
21834;DHT22;11079;51.092;3.458;2022-08-24T01:27:29;20.60;99.90
21834;DHT22;11079;51.092;3.458;2022-08-24T01:29:58;20.50;99.90
21834;DHT22;11079;51.092;3.458;2022-08-24T01:32:25;20.50;99.90
21834;DHT22;11079;51.092;3.458;2022-08-24T01:34:55;20.60;99.90
21834;DHT22;11079;51.092;3.458;2022-08-24T01:37:21;20.50;99.90
21834;DHT22;11079;51.092;3.458;2022-08-24T01:39:49;20.50;99.90
21834;DHT22;11079;51.092;3.458;2022-08-24T01:42:16;20.40;99.90
21834;DHT22;11079;51.092;3.458;2022-08-24T01:44:43;20.30;99.90
21834;DHT22;11079;51.092;3.458;2022-08-24T01:47:10;20.30;99.90
21834;DHT22;11079;51.092;3.458;2022-08-24T01:49:39;20.30;99.90
21834;DHT22;11079;51.092;3.458;2022-08-24T01:52:08;20.30;99.90
21834;DHT22;11079;51.092;3.458;2022-08-24T01:54:34;20.20;99.90
21834;DHT22;11079;51.092;3.458;2022-08-24T01:57:00;20.20;99.90
21834;DHT22;11079;51.092;3.458;2022-08-24T01:59:27;20.20;99.90
21834;DHT22;11079;51.092;3.458;2022-08-24T02:01:57;20.10;99.90
21834;DHT22;11079;51.092;3.458;2022-08-24T02:04:25;20.10;99.90
21834;DHT22;11079;51.092;3.458;2022-08-24T02:06:50;20.10;99.90
21834;DHT22;11079;51.092;3.458;2022-08-24T02:09:17;20.00;99.90
21834;DHT22;11079;51.092;3.458;2022-08-24T02:11:43;20.10;99.90
21834;DHT22;11079;51.092;3.458;2022-08-24T02:14:08;20.20;99.90
21834;DHT22;11079;51.092;3.458;2022-08-24T02:16:34;20.00;99.90
21834;DHT22;11079;51.092;3.458;2022-08-24T02:19:00;19.90;99.90
21834;DHT22;11079;51.092;3.458;2022-08-24T02:21:25;19.90;99.90
21834;DHT22;11079;51.092;3.458;2022-08-24T02:23:51;19.90;99.90
21834;DHT22;11079;51.092;3.458;2022-08-24T02:26:17;19.80;99.90
21834;DHT22;11079;51.092;3.458;2022-08-24T02:28:43;19.80;99.90
21834;DHT22;11079;51.092;3.458;2022-08-24T02:31:10;19.80;99.90
21834;DHT22;11079;51.092;3.458;2022-08-24T02:33:37;19.70;99.90
21834;DHT22;11079;51.092;3.458;2022-08-24T02:36:04;19.60;99.90
21834;DHT22;11079;51.092;3.458;2022-08-24T02:38:30;19.70;99.90
21834;DHT22;11079;51.092;3.458;2022-08-24T02:40:56;19.70;99.90
21834;DHT22;11079;51.092;3.458;2022-08-24T02:43:23;19.70;99.90
21834;DHT22;11079;51.092;3.458;2022-08-24T02:45:49;19.70;99.90
21834;DHT22;11079;51.092;3.458;2022-08-24T02:48:15;19.80;99.90
21834;DHT22;11079;51.092;3.458;2022-08-24T02:50:43;19.80;99.90
21834;DHT22;11079;51.092;3.458;2022-08-24T02:53:11;19.80;99.90
21834;DHT22;11079;51.092;3.458;2022-08-24T02:55:39;19.80;99.90
21834;DHT22;11079;51.092;3.458;2022-08-24T02:58:07;19.70;99.90
21834;DHT22;11079;51.092;3.458;2022-08-24T03:00:33;19.70;99.90
21834;DHT22;11079;51.092;3.458;2022-08-24T03:03:01;19.70;99.90
21834;DHT22;11079;51.092;3.458;2022-08-24T03:05:27;19.70;99.90
21834;DHT22;11079;51.092;3.458;2022-08-24T03:07:53;19.80;99.90
21834;DHT22;11079;51.092;3.458;2022-08-24T03:10:20;19.80;99.90
21834;DHT22;11079;51.092;3.458;2022-08-24T03:12:46;19.80;99.90
21834;DHT22;11079;51.092;3.458;2022-08-24T03:15:12;19.90;99.90
21834;DHT22;11079;51.092;3.458;2022-08-24T03:17:38;19.80;99.90
21834;DHT22;11079;51.092;3.458;2022-08-24T03:20:07;19.70;99.90
21834;DHT22;11079;51.092;3.458;2022-08-24T03:22:34;19.70;99.90
21834;DHT22;11079;51.092;3.458;2022-08-24T03:25:00;19.70;99.90
21834;DHT22;11079;51.092;3.458;2022-08-24T03:27:26;19.70;99.90
21834;DHT22;11079;51.092;3.458;2022-08-24T03:29:51;19.70;99.90
21834;DHT22;11079;51.092;3.458;2022-08-24T03:32:17;19.60;99.90
21834;DHT22;11079;51.092;3.458;2022-08-24T03:34:43;19.50;99.90
21834;DHT22;11079;51.092;3.458;2022-08-24T03:37:08;19.60;99.90
21834;DHT22;11079;51.092;3.458;2022-08-24T03:39:34;19.60;99.90
21834;DHT22;11079;51.092;3.458;2022-08-24T03:42:00;19.70;99.90
21834;DHT22;11079;51.092;3.458;2022-08-24T03:44:25;19.70;99.90
21834;DHT22;11079;51.092;3.458;2022-08-24T03:46:52;19.70;99.90
21834;DHT22;11079;51.092;3.458;2022-08-24T03:49:18;19.70;99.90
21834;DHT22;11079;51.092;3.458;2022-08-24T03:51:44;19.70;99.90
21834;DHT22;11079;51.092;3.458;2022-08-24T03:54:12;19.60;99.90
21834;DHT22;11079;51.092;3.458;2022-08-24T03:56:38;19.70;99.90
21834;DHT22;11079;51.092;3.458;2022-08-24T03:59:05;19.70;99.90
21834;DHT22;11079;51.092;3.458;2022-08-24T04:01:32;19.70;99.90
21834;DHT22;11079;51.092;3.458;2022-08-24T04:03:58;19.70;99.90
21834;DHT22;11079;51.092;3.458;2022-08-24T04:06:24;19.70;99.90
21834;DHT22;11079;51.092;3.458;2022-08-24T04:08:51;19.70;99.90
21834;DHT22;11079;51.092;3.458;2022-08-24T04:11:23;19.60;99.90
21834;DHT22;11079;51.092;3.458;2022-08-24T04:13:52;19.60;99.90
21834;DHT22;11079;51.092;3.458;2022-08-24T04:16:19;19.60;99.90
21834;DHT22;11079;51.092;3.458;2022-08-24T04:18:46;19.50;99.90
21834;DHT22;11079;51.092;3.458;2022-08-24T04:21:24;19.50;99.90
21834;DHT22;11079;51.092;3.458;2022-08-24T04:23:51;19.20;99.90
21834;DHT22;11079;51.092;3.458;2022-08-24T04:26:18;19.20;99.90
21834;DHT22;11079;51.092;3.458;2022-08-24T04:28:44;19.40;99.90
21834;DHT22;11079;51.092;3.458;2022-08-24T04:31:10;19.40;99.90
21834;DHT22;11079;51.092;3.458;2022-08-24T04:33:36;19.10;99.90
21834;DHT22;11079;51.092;3.458;2022-08-24T04:36:06;19.00;99.90
21834;DHT22;11079;51.092;3.458;2022-08-24T04:38:34;19.00;99.90
21834;DHT22;11079;51.092;3.458;2022-08-24T04:41:06;19.00;99.90
21834;DHT22;11079;51.092;3.458;2022-08-24T04:43:33;19.10;99.90
21834;DHT22;11079;51.092;3.458;2022-08-24T04:46:02;19.20;99.90
21834;DHT22;11079;51.092;3.458;2022-08-24T04:48:29;19.30;99.90
21834;DHT22;11079;51.092;3.458;2022-08-24T04:50:54;19.40;99.90
21834;DHT22;11079;51.092;3.458;2022-08-24T04:53:20;19.40;99.90
21834;DHT22;11079;51.092;3.458;2022-08-24T04:55:47;19.40;99.90
21834;DHT22;11079;51.092;3.458;2022-08-24T04:58:15;19.50;99.90
21834;DHT22;11079;51.092;3.458;2022-08-24T05:00:42;19.50;99.90
21834;DHT22;11079;51.092;3.458;2022-08-24T05:03:09;19.60;99.90
21834;DHT22;11079;51.092;3.458;2022-08-24T05:05:39;19.50;99.90
21834;DHT22;11079;51.092;3.458;2022-08-24T05:08:06;19.60;99.90
21834;DHT22;11079;51.092;3.458;2022-08-24T05:10:31;19.60;99.90
21834;DHT22;11079;51.092;3.458;2022-08-24T05:12:57;19.60;99.90
21834;DHT22;11079;51.092;3.458;2022-08-24T05:15:22;19.70;99.90
21834;DHT22;11079;51.092;3.458;2022-08-24T05:17:49;19.70;99.90
21834;DHT22;11079;51.092;3.458;2022-08-24T05:20:15;19.80;99.90
21834;DHT22;11079;51.092;3.458;2022-08-24T05:22:41;20.30;99.90
21834;DHT22;11079;51.092;3.458;2022-08-24T05:25:08;21.00;99.90
21834;DHT22;11079;51.092;3.458;2022-08-24T05:27:34;21.80;99.90
21834;DHT22;11079;51.092;3.458;2022-08-24T05:30:00;22.60;99.90
21834;DHT22;11079;51.092;3.458;2022-08-24T05:32:27;23.30;99.90
21834;DHT22;11079;51.092;3.458;2022-08-24T05:34:53;24.10;99.90
21834;DHT22;11079;51.092;3.458;2022-08-24T05:37:18;24.80;99.90
21834;DHT22;11079;51.092;3.458;2022-08-24T05:39:44;25.40;99.90
21834;DHT22;11079;51.092;3.458;2022-08-24T05:42:10;26.00;99.90
21834;DHT22;11079;51.092;3.458;2022-08-24T05:44:35;25.80;99.90
21834;DHT22;11079;51.092;3.458;2022-08-24T05:47:01;26.00;99.90
21834;DHT22;11079;51.092;3.458;2022-08-24T05:49:28;26.60;99.90
21834;DHT22;11079;51.092;3.458;2022-08-24T05:51:53;27.40;99.90
21834;DHT22;11079;51.092;3.458;2022-08-24T05:54:20;28.30;99.90
21834;DHT22;11079;51.092;3.458;2022-08-24T05:56:47;29.10;99.90
21834;DHT22;11079;51.092;3.458;2022-08-24T05:59:13;29.60;99.90
21834;DHT22;11079;51.092;3.458;2022-08-24T06:01:41;30.30;99.90
21834;DHT22;11079;51.092;3.458;2022-08-24T06:04:07;30.50;99.90
21834;DHT22;11079;51.092;3.458;2022-08-24T06:06:33;29.90;99.90
21834;DHT22;11079;51.092;3.458;2022-08-24T06:08:59;29.40;99.90
21834;DHT22;11079;51.092;3.458;2022-08-24T06:11:33;28.80;99.90
21834;DHT22;11079;51.092;3.458;2022-08-24T06:14:06;28.20;99.90
21834;DHT22;11079;51.092;3.458;2022-08-24T06:16:34;27.90;99.90
21834;DHT22;11079;51.092;3.458;2022-08-24T06:19:00;27.50;99.90
21834;DHT22;11079;51.092;3.458;2022-08-24T06:21:27;27.20;99.90
21834;DHT22;11079;51.092;3.458;2022-08-24T06:23:53;26.90;99.90
21834;DHT22;11079;51.092;3.458;2022-08-24T06:26:20;26.70;99.90
21834;DHT22;11079;51.092;3.458;2022-08-24T06:29:06;26.50;99.90
21834;DHT22;11079;51.092;3.458;2022-08-24T06:31:40;26.50;99.90
21834;DHT22;11079;51.092;3.458;2022-08-24T06:34:08;26.40;99.90
21834;DHT22;11079;51.092;3.458;2022-08-24T06:36:34;26.30;99.90
21834;DHT22;11079;51.092;3.458;2022-08-24T06:39:00;26.30;99.90
21834;DHT22;11079;51.092;3.458;2022-08-24T06:41:26;26.20;99.90
21834;DHT22;11079;51.092;3.458;2022-08-24T06:43:51;26.40;99.90
21834;DHT22;11079;51.092;3.458;2022-08-24T06:46:17;27.20;99.90
21834;DHT22;11079;51.092;3.458;2022-08-24T06:48:44;27.70;99.90
21834;DHT22;11079;51.092;3.458;2022-08-24T06:51:12;28.30;99.90
21834;DHT22;11079;51.092;3.458;2022-08-24T06:53:38;28.90;99.90
21834;DHT22;11079;51.092;3.458;2022-08-24T06:56:05;30.60;99.90
21834;DHT22;11079;51.092;3.458;2022-08-24T06:58:31;32.00;99.90
21834;DHT22;11079;51.092;3.458;2022-08-24T07:00:57;32.90;99.90
21834;DHT22;11079;51.092;3.458;2022-08-24T07:03:31;33.90;99.90
21834;DHT22;11079;51.092;3.458;2022-08-24T07:05:57;34.40;99.90
21834;DHT22;11079;51.092;3.458;2022-08-24T07:08:28;34.00;99.90
21834;DHT22;11079;51.092;3.458;2022-08-24T07:10:54;33.90;99.90
21834;DHT22;11079;51.092;3.458;2022-08-24T07:13:20;34.50;99.90
21834;DHT22;11079;51.092;3.458;2022-08-24T07:15:46;35.20;99.90
21834;DHT22;11079;51.092;3.458;2022-08-24T07:18:16;36.10;99.90
21834;DHT22;11079;51.092;3.458;2022-08-24T07:20:43;37.00;99.90
21834;DHT22;11079;51.092;3.458;2022-08-24T07:23:09;37.10;99.90
21834;DHT22;11079;51.092;3.458;2022-08-24T07:25:37;38.30;99.90
21834;DHT22;11079;51.092;3.458;2022-08-24T07:28:03;39.20;99.90
21834;DHT22;11079;51.092;3.458;2022-08-24T07:30:29;39.80;99.90
21834;DHT22;11079;51.092;3.458;2022-08-24T07:32:56;39.90;99.90
21834;DHT22;11079;51.092;3.458;2022-08-24T07:35:23;39.70;99.70
21834;DHT22;11079;51.092;3.458;2022-08-24T07:37:49;40.10;98.60
21834;DHT22;11079;51.092;3.458;2022-08-24T07:40:15;40.90;96.70
21834;DHT22;11079;51.092;3.458;2022-08-24T07:42:41;41.50;94.70
21834;DHT22;11079;51.092;3.458;2022-08-24T07:45:07;41.20;93.20
21834;DHT22;11079;51.092;3.458;2022-08-24T07:47:33;40.00;93.50
21834;DHT22;11079;51.092;3.458;2022-08-24T07:49:59;38.90;95.00
21834;DHT22;11079;51.092;3.458;2022-08-24T07:52:25;38.00;96.20
21834;DHT22;11079;51.092;3.458;2022-08-24T07:54:50;37.10;97.70
21834;DHT22;11079;51.092;3.458;2022-08-24T07:57:16;36.40;99.40
21834;DHT22;11079;51.092;3.458;2022-08-24T07:59:42;35.90;99.90
21834;DHT22;11079;51.092;3.458;2022-08-24T08:02:08;35.30;99.90
21834;DHT22;11079;51.092;3.458;2022-08-24T08:04:35;34.50;99.90
21834;DHT22;11079;51.092;3.458;2022-08-24T08:07:01;34.70;99.90
21834;DHT22;11079;51.092;3.458;2022-08-24T08:09:27;34.80;99.90
21834;DHT22;11079;51.092;3.458;2022-08-24T08:11:52;34.90;99.90
21834;DHT22;11079;51.092;3.458;2022-08-24T08:14:18;35.10;99.90
21834;DHT22;11079;51.092;3.458;2022-08-24T08:16:44;35.70;99.90
21834;DHT22;11079;51.092;3.458;2022-08-24T08:19:10;37.80;99.90
21834;DHT22;11079;51.092;3.458;2022-08-24T08:21:47;39.80;97.70
21834;DHT22;11079;51.092;3.458;2022-08-24T08:24:32;41.40;94.50
21834;DHT22;11079;51.092;3.458;2022-08-24T08:26:57;42.40;91.50
21834;DHT22;11079;51.092;3.458;2022-08-24T08:29:24;42.20;89.30
21834;DHT22;11079;51.092;3.458;2022-08-24T08:31:50;42.30;88.50
21834;DHT22;11079;51.092;3.458;2022-08-24T08:34:17;42.80;86.80
21834;DHT22;11079;51.092;3.458;2022-08-24T08:36:43;43.40;86.80
21834;DHT22;11079;51.092;3.458;2022-08-24T08:39:11;43.10;82.60
21834;DHT22;11079;51.092;3.458;2022-08-24T09:04:06;46.30;71.00
21834;DHT22;11079;51.092;3.458;2022-08-24T09:22:41;45.10;65.60
21834;DHT22;11079;51.092;3.458;2022-08-24T09:25:42;44.30;66.90
21834;DHT22;11079;51.092;3.458;2022-08-24T09:34:25;44.60;67.20
21834;DHT22;11079;51.092;3.458;2022-08-24T09:39:34;44.20;66.00
21834;DHT22;11079;51.092;3.458;2022-08-24T09:42:21;44.40;64.30
21834;DHT22;11079;51.092;3.458;2022-08-24T09:50:59;44.70;63.40
21834;DHT22;11079;51.092;3.458;2022-08-24T09:56:40;42.90;64.40
21834;DHT22;11079;51.092;3.458;2022-08-24T10:04:55;43.60;64.90
21834;DHT22;11079;51.092;3.458;2022-08-24T10:08:02;43.90;64.70
21834;DHT22;11079;51.092;3.458;2022-08-24T10:13:24;44.00;64.10
21834;DHT22;11079;51.092;3.458;2022-08-24T10:16:16;44.20;63.90
21834;DHT22;11079;51.092;3.458;2022-08-24T10:29:59;43.80;63.40
21834;DHT22;11079;51.092;3.458;2022-08-24T10:32:51;44.90;62.30
21834;DHT22;11079;51.092;3.458;2022-08-24T10:35:21;44.90;62.20
21834;DHT22;11079;51.092;3.458;2022-08-24T10:46:38;44.30;62.70
21834;DHT22;11079;51.092;3.458;2022-08-24T10:54:39;42.30;64.90
21834;DHT22;11079;51.092;3.458;2022-08-24T10:58:18;43.10;65.10
21834;DHT22;11079;51.092;3.458;2022-08-24T11:00:14;43.80;63.50
21834;DHT22;11079;51.092;3.458;2022-08-24T11:02:45;44.40;61.60
21834;DHT22;11079;51.092;3.458;2022-08-24T11:05:16;45.00;61.80
21834;DHT22;11079;51.092;3.458;2022-08-24T11:08:02;45.30;59.50
21834;DHT22;11079;51.092;3.458;2022-08-24T11:10:32;45.10;59.40
21834;DHT22;11079;51.092;3.458;2022-08-24T11:13:23;44.10;60.00
21834;DHT22;11079;51.092;3.458;2022-08-24T11:15:52;44.60;60.00
21834;DHT22;11079;51.092;3.458;2022-08-24T11:18:19;44.30;58.70
21834;DHT22;11079;51.092;3.458;2022-08-24T11:20:47;43.20;60.60
21834;DHT22;11079;51.092;3.458;2022-08-24T11:23:38;43.60;60.60
21834;DHT22;11079;51.092;3.458;2022-08-24T11:26:17;44.80;59.20
21834;DHT22;11079;51.092;3.458;2022-08-24T11:28:59;44.60;59.40
21834;DHT22;11079;51.092;3.458;2022-08-24T11:31:39;44.70;58.60
21834;DHT22;11079;51.092;3.458;2022-08-24T11:34:09;44.40;58.90
21834;DHT22;11079;51.092;3.458;2022-08-24T11:36:55;44.60;59.20
21834;DHT22;11079;51.092;3.458;2022-08-24T11:39:34;42.70;60.00
21834;DHT22;11079;51.092;3.458;2022-08-24T11:47:39;38.00;67.50
21834;DHT22;11079;51.092;3.458;2022-08-24T11:50:24;36.80;70.60
21834;DHT22;11079;51.092;3.458;2022-08-24T11:55:58;35.50;75.80
21834;DHT22;11079;51.092;3.458;2022-08-24T12:01:26;38.30;70.30
21834;DHT22;11079;51.092;3.458;2022-08-24T12:07:25;40.70;65.00
21834;DHT22;11079;51.092;3.458;2022-08-24T12:18:22;38.80;66.90
21834;DHT22;11079;51.092;3.458;2022-08-24T12:20:50;39.40;67.70
21834;DHT22;11079;51.092;3.458;2022-08-24T12:24:22;39.60;65.50
21834;DHT22;11079;51.092;3.458;2022-08-24T12:27:11;40.70;65.80
21834;DHT22;11079;51.092;3.458;2022-08-24T12:30:05;42.10;61.70
21834;DHT22;11079;51.092;3.458;2022-08-24T12:33:08;42.90;60.90
21834;DHT22;11079;51.092;3.458;2022-08-24T12:35:45;40.70;62.30
21834;DHT22;11079;51.092;3.458;2022-08-24T12:38:32;38.80;65.40
21834;DHT22;11079;51.092;3.458;2022-08-24T12:41:26;37.20;68.40
21834;DHT22;11079;51.092;3.458;2022-08-24T12:44:17;36.40;70.20
21834;DHT22;11079;51.092;3.458;2022-08-24T12:46:51;35.70;72.40
21834;DHT22;11079;51.092;3.458;2022-08-24T12:49:26;36.30;73.20
21834;DHT22;11079;51.092;3.458;2022-08-24T12:59:05;34.70;75.90
21834;DHT22;11079;51.092;3.458;2022-08-24T13:02:00;33.90;78.50
21834;DHT22;11079;51.092;3.458;2022-08-24T13:05:10;33.50;80.60
21834;DHT22;11079;51.092;3.458;2022-08-24T13:08:33;33.40;81.40
21834;DHT22;11079;51.092;3.458;2022-08-24T13:14:13;32.90;84.10
21834;DHT22;11079;51.092;3.458;2022-08-24T13:17:07;33.10;84.00
21834;DHT22;11079;51.092;3.458;2022-08-24T13:19:44;33.00;84.50
21834;DHT22;11079;51.092;3.458;2022-08-24T13:24:45;33.20;85.30
21834;DHT22;11079;51.092;3.458;2022-08-24T13:32:38;34.70;83.70
21834;DHT22;11079;51.092;3.458;2022-08-24T13:43:58;33.80;82.90
21834;DHT22;11079;51.092;3.458;2022-08-24T13:52:31;33.90;84.00
21834;DHT22;11079;51.092;3.458;2022-08-24T14:20:07;34.00;82.40
21834;DHT22;11079;51.092;3.458;2022-08-24T14:25:29;34.50;81.50
21834;DHT22;11079;51.092;3.458;2022-08-24T14:41:06;35.50;79.10
21834;DHT22;11079;51.092;3.458;2022-08-24T14:57:07;34.80;78.50
21834;DHT22;11079;51.092;3.458;2022-08-24T15:04:51;34.40;80.70
21834;DHT22;11079;51.092;3.458;2022-08-24T15:07:22;34.30;80.80
21834;DHT22;11079;51.092;3.458;2022-08-24T15:09:48;34.40;81.80
21834;DHT22;11079;51.092;3.458;2022-08-24T15:15:27;34.10;82.40
21834;DHT22;11079;51.092;3.458;2022-08-24T15:23:51;33.80;82.60
21834;DHT22;11079;51.092;3.458;2022-08-24T15:29:21;34.00;82.60
21834;DHT22;11079;51.092;3.458;2022-08-24T15:36:59;33.30;84.90
21834;DHT22;11079;51.092;3.458;2022-08-24T15:39:27;33.20;86.10
21834;DHT22;11079;51.092;3.458;2022-08-24T15:41:53;33.40;85.20
21834;DHT22;11079;51.092;3.458;2022-08-24T15:44:22;33.30;85.50
21834;DHT22;11079;51.092;3.458;2022-08-24T15:46:52;33.30;86.40
21834;DHT22;11079;51.092;3.458;2022-08-24T15:49:28;33.40;86.40
21834;DHT22;11079;51.092;3.458;2022-08-24T15:52:06;33.40;85.80
21834;DHT22;11079;51.092;3.458;2022-08-24T15:54:44;33.30;85.90
21834;DHT22;11079;51.092;3.458;2022-08-24T15:59:53;33.30;84.30
21834;DHT22;11079;51.092;3.458;2022-08-24T16:02:25;33.40;84.60
21834;DHT22;11079;51.092;3.458;2022-08-24T16:08:06;33.00;85.90
21834;DHT22;11079;51.092;3.458;2022-08-24T16:10:51;32.90;86.50
21834;DHT22;11079;51.092;3.458;2022-08-24T16:15:47;32.90;87.80
21834;DHT22;11079;51.092;3.458;2022-08-24T16:18:16;32.90;88.40
21834;DHT22;11079;51.092;3.458;2022-08-24T16:33:03;32.30;89.60
21834;DHT22;11079;51.092;3.458;2022-08-24T16:35:30;32.20;90.00
21834;DHT22;11079;51.092;3.458;2022-08-24T16:37:57;31.90;90.40
21834;DHT22;11079;51.092;3.458;2022-08-24T16:40:50;32.00;91.10
21834;DHT22;11079;51.092;3.458;2022-08-24T16:43:39;32.00;91.50
21834;DHT22;11079;51.092;3.458;2022-08-24T16:46:07;32.20;90.90
21834;DHT22;11079;51.092;3.458;2022-08-24T16:48:33;32.20;91.30
21834;DHT22;11079;51.092;3.458;2022-08-24T16:50:59;32.10;92.10
21834;DHT22;11079;51.092;3.458;2022-08-24T16:53:25;31.90;91.90
21834;DHT22;11079;51.092;3.458;2022-08-24T16:56:10;32.00;92.00
21834;DHT22;11079;51.092;3.458;2022-08-24T16:58:56;32.10;91.90
21834;DHT22;11079;51.092;3.458;2022-08-24T17:01:47;32.10;91.70
21834;DHT22;11079;51.092;3.458;2022-08-24T17:04:14;32.10;92.00
21834;DHT22;11079;51.092;3.458;2022-08-24T17:06:40;32.10;91.80
21834;DHT22;11079;51.092;3.458;2022-08-24T17:09:06;31.80;92.50
21834;DHT22;11079;51.092;3.458;2022-08-24T17:11:32;31.60;92.20
21834;DHT22;11079;51.092;3.458;2022-08-24T17:13:59;31.30;93.00
21834;DHT22;11079;51.092;3.458;2022-08-24T17:16:24;31.20;93.30
21834;DHT22;11079;51.092;3.458;2022-08-24T17:18:50;31.00;93.90
21834;DHT22;11079;51.092;3.458;2022-08-24T17:21:22;31.00;94.20
21834;DHT22;11079;51.092;3.458;2022-08-24T17:23:48;31.10;94.60
21834;DHT22;11079;51.092;3.458;2022-08-24T17:26:15;31.00;95.10
21834;DHT22;11079;51.092;3.458;2022-08-24T17:28:42;31.10;94.70
21834;DHT22;11079;51.092;3.458;2022-08-24T17:31:09;31.20;94.60
21834;DHT22;11079;51.092;3.458;2022-08-24T17:33:35;31.10;94.60
21834;DHT22;11079;51.092;3.458;2022-08-24T17:36:08;30.90;94.80
21834;DHT22;11079;51.092;3.458;2022-08-24T17:38:42;31.00;95.00
21834;DHT22;11079;51.092;3.458;2022-08-24T17:41:12;30.90;94.90
21834;DHT22;11079;51.092;3.458;2022-08-24T17:43:38;30.90;94.90
21834;DHT22;11079;51.092;3.458;2022-08-24T17:46:09;30.70;95.30
21834;DHT22;11079;51.092;3.458;2022-08-24T17:48:35;30.70;95.80
21834;DHT22;11079;51.092;3.458;2022-08-24T17:51:05;30.60;95.90
21834;DHT22;11079;51.092;3.458;2022-08-24T17:53:30;30.70;96.00
21834;DHT22;11079;51.092;3.458;2022-08-24T17:55:56;30.80;96.60
21834;DHT22;11079;51.092;3.458;2022-08-24T17:58:22;30.90;97.50
21834;DHT22;11079;51.092;3.458;2022-08-24T18:00:47;30.90;98.40
21834;DHT22;11079;51.092;3.458;2022-08-24T18:03:13;30.80;98.40
21834;DHT22;11079;51.092;3.458;2022-08-24T18:05:39;30.70;99.90
21834;DHT22;11079;51.092;3.458;2022-08-24T18:08:05;30.70;99.90
21834;DHT22;11079;51.092;3.458;2022-08-24T18:10:31;30.60;99.90
21834;DHT22;11079;51.092;3.458;2022-08-24T18:12:58;30.50;99.90
21834;DHT22;11079;51.092;3.458;2022-08-24T18:15:27;30.40;99.90
21834;DHT22;11079;51.092;3.458;2022-08-24T18:17:57;30.30;99.90
21834;DHT22;11079;51.092;3.458;2022-08-24T18:20:34;30.20;99.90
21834;DHT22;11079;51.092;3.458;2022-08-24T18:23:00;30.20;99.90
21834;DHT22;11079;51.092;3.458;2022-08-24T18:25:26;30.10;99.90
21834;DHT22;11079;51.092;3.458;2022-08-24T18:27:56;30.20;99.90
21834;DHT22;11079;51.092;3.458;2022-08-24T18:30:26;30.10;99.90
21834;DHT22;11079;51.092;3.458;2022-08-24T18:32:52;29.90;99.90
21834;DHT22;11079;51.092;3.458;2022-08-24T18:35:20;29.80;99.90
21834;DHT22;11079;51.092;3.458;2022-08-24T18:38:09;29.70;99.90
21834;DHT22;11079;51.092;3.458;2022-08-24T18:40:35;29.60;99.90
21834;DHT22;11079;51.092;3.458;2022-08-24T18:43:01;29.50;99.90
21834;DHT22;11079;51.092;3.458;2022-08-24T18:45:52;29.50;99.90
21834;DHT22;11079;51.092;3.458;2022-08-24T18:48:23;29.30;99.90
21834;DHT22;11079;51.092;3.458;2022-08-24T18:50:51;29.10;99.90
21834;DHT22;11079;51.092;3.458;2022-08-24T18:53:28;29.00;99.90
21834;DHT22;11079;51.092;3.458;2022-08-24T18:55:54;28.90;99.90
21834;DHT22;11079;51.092;3.458;2022-08-24T18:58:20;28.80;99.90
21834;DHT22;11079;51.092;3.458;2022-08-24T19:00:46;28.70;99.90
21834;DHT22;11079;51.092;3.458;2022-08-24T19:03:16;28.60;99.90
21834;DHT22;11079;51.092;3.458;2022-08-24T19:05:43;28.50;99.90
21834;DHT22;11079;51.092;3.458;2022-08-24T19:08:11;28.50;99.90
21834;DHT22;11079;51.092;3.458;2022-08-24T19:10:40;28.30;99.90
21834;DHT22;11079;51.092;3.458;2022-08-24T19:13:26;28.20;99.90
21834;DHT22;11079;51.092;3.458;2022-08-24T19:15:55;28.10;99.90
21834;DHT22;11079;51.092;3.458;2022-08-24T19:18:24;28.00;99.90
21834;DHT22;11079;51.092;3.458;2022-08-24T19:20:53;27.90;99.90
21834;DHT22;11079;51.092;3.458;2022-08-24T19:23:24;27.70;99.90
21834;DHT22;11079;51.092;3.458;2022-08-24T19:25:52;27.40;99.90
21834;DHT22;11079;51.092;3.458;2022-08-24T19:28:22;27.40;99.90
21834;DHT22;11079;51.092;3.458;2022-08-24T19:31:07;27.30;99.90
21834;DHT22;11079;51.092;3.458;2022-08-24T19:33:38;27.30;99.90
21834;DHT22;11079;51.092;3.458;2022-08-24T19:36:18;27.30;99.90
21834;DHT22;11079;51.092;3.458;2022-08-24T19:38:47;27.10;99.90
21834;DHT22;11079;51.092;3.458;2022-08-24T19:41:13;27.00;99.90
21834;DHT22;11079;51.092;3.458;2022-08-24T19:47:07;26.90;99.90
21834;DHT22;11079;51.092;3.458;2022-08-24T19:49:41;26.90;99.90
21834;DHT22;11079;51.092;3.458;2022-08-24T19:52:30;26.80;99.90
21834;DHT22;11079;51.092;3.458;2022-08-24T19:54:57;26.70;99.90
21834;DHT22;11079;51.092;3.458;2022-08-24T19:58:17;26.70;99.90
21834;DHT22;11079;51.092;3.458;2022-08-24T20:07:26;26.40;99.90
21834;DHT22;11079;51.092;3.458;2022-08-24T20:09:52;26.40;99.90